Flight Track Log - Related Links

Times and Time Zones

All times are in EDT time to prevent confusion due to time zone crossing. See the SWA2131 flight status page for this flight to view local times or setup timezone preferences in your user account.

Time Position Orientation Groundspeed Altitude Reporting Facility
EDT Latitude Longitude Course Direction KTS MPH feet Rate Location/Type
Sat 11:30:14 AM 36.0761 -115.1683 263° West 154 177 3,400  Level Los Angeles Center
Sat 11:31:27 AM 36.0681 -115.2506 263° West 226 260 5,500 1,927 Climbing Los Angeles Center
Sat 11:32:03 AM 36.0317 -115.2725 206° Southwest 256 295 6,900 1,299 Climbing Los Angeles Center
Sat 11:33:04 AM 35.9586 -115.3033 199° South 273 314 7,600 1,902 Climbing Los Angeles Center
Sat 11:34:06 AM 35.8819 -115.3125 186° South 274 315 10,800 3,145 Climbing Los Angeles Center
Sat 11:35:08 AM 35.7875 -115.3069 177° South 310 357 14,100 3,268 Climbing Los Angeles Center
Sat 11:36:09 AM 35.6869 -115.2944 174° South 340 391 17,500 3,268 Climbing Los Angeles Center
Sat 11:37:11 AM 35.5794 -115.2936 180° South 362 417 20,800 2,806 Climbing Los Angeles Center
Sat 11:38:13 AM 35.4644 -115.3025 184° South 388 447 23,300 3,171 Climbing Los Angeles Center
Sat 11:39:14 AM 35.3275 -115.3500 196° South 415 478 27,300 2,293 Climbing Los Angeles Center
Sat 11:40:16 AM 35.2167 -115.3889 196° South 414 476 28,000 341 Climbing Los Angeles Center
Sat 11:41:17 AM 35.1075 -115.4253 195° South 413 475 28,000  Level Los Angeles Center
Sat 11:42:19 AM 34.9950 -115.4611 195° South 414 476 28,000  Level Los Angeles Center
Sat 11:43:21 AM 34.8811 -115.4981 195° South 415 478 28,000  Level Los Angeles Center
Sat 11:44:22 AM 34.7694 -115.5342 195° South 415 478 28,000  Level Los Angeles Center
Sat 11:45:24 AM 34.6578 -115.5717 195° South 420 483 28,000  Level Los Angeles Center
Sat 11:46:26 AM 34.5461 -115.6078 195° South 417 480 28,000  Level Los Angeles Center
Sat 11:47:27 AM 34.4106 -115.6536 196° South 420 483 28,000  Level Los Angeles Center
Sat 11:48:29 AM 34.3114 -115.6878 196° South 418 481 28,000  Level Los Angeles Center
Sat 11:49:31 AM 34.1986 -115.7231 195° South 417 480 28,000  Level Los Angeles Center
Sat 11:50:33 AM 34.0661 -115.7650 195° South 413 475 28,000  Level Los Angeles Center
Sat 11:51:34 AM 33.9544 -115.8006 195° South 415 478 28,000 -244 Level Los Angeles Center
Sat 11:52:36 AM 33.8422 -115.8378 195° South 416 479 27,500 -677 Descending Los Angeles Center
Sat 11:53:38 AM 33.7311 -115.8739 195° South 415 478 26,600 -927 Descending Los Angeles Center
Sat 11:54:39 AM 33.6164 -115.9100 195° South 423 487 25,600 -1,220 Descending Los Angeles Center
Sat 11:55:41 AM 33.5072 -115.9531 198° South 417 480 24,100 -1,355 Descending Los Angeles Center
Sat 11:56:43 AM 33.4194 -116.0372 219° Southwest 411 473 22,800 -1,839 Descending Los Angeles Center
Sat 11:57:45 AM 33.3194 -116.1358 220° Southwest 389 448 20,300 -2,206 Descending Los Angeles Center
Sat 11:58:59 AM 33.2233 -116.2306 220° Southwest 378 435 17,800 -2,029 Descending Los Angeles Center
Sat 12:00:01 PM 33.1472 -116.3056 220° Southwest 361 415 15,700 -2,098 Descending Los Angeles Center
Sat 12:01:02 PM 33.0706 -116.3797 219° Southwest 357 411 13,500 -1,805 Descending Los Angeles Center
Sat 12:02:04 PM 32.9844 -116.4550 216° Southwest 342 394 12,000 -1,113 Descending Los Angeles Center
Sat 12:03:06 PM 32.9036 -116.5025 206° Southwest 327 376 11,200 -871 Descending Los Angeles Center
Sat 12:04:08 PM 32.8317 -116.5589 213° Southwest 318 366 10,200 -968 Descending Los Angeles Center
Sat 12:05:10 PM 32.7942 -116.6369 240° Southwest 289 333 9,200 -1,171 Descending Los Angeles Center
Sat 12:06:11 PM 32.7567 -116.7131 240° Southwest 271 312 7,800 -1,415 Descending Los Angeles Center
Sat 12:07:13 PM 32.7217 -116.7878 241° Southwest 263 303 6,300 -1,359 Descending Los Angeles Center
Sat 12:08:19 PM 32.6833 -116.8833 245° Southwest 243 280 4,900 -1,095 Descending Southern California TRACON
Sat 12:09:19 PM 32.6833 -116.9500 270° West 221 254 4,000 -947 Descending Southern California TRACON
Sat 12:10:13 PM 32.6833 -117.0167 270° West 192 221 3,100 -1,000 Descending Southern California TRACON
Sat 12:11:13 PM 32.7000 -117.0667 292° West 157 181 2,100 -900 Descending Southern California TRACON
Sat 12:12:13 PM 32.7167 -117.1000 301° West 143 165 1,300 -737 Descending Southern California TRACON
Sat 12:13:07 PM 32.7167 -117.1500 270° West 131 151 700 -676 Descending Southern California TRACON
Sat 12:13:24 PM 32.7256 -117.1547 336° Northwest 145 167 500 -380 Descending Los Angeles Center
Sat 12:14:26 PM 32.7372 -117.2050 285° West 142 163 200 -290 Descending Los Angeles Center
Sat 12:16:00 PM 32.7333 -117.1833 90° East  Level FlightAware Approximate

Login

Don't have an account? Register now (free) for customized features, flight alerts, and more!